sensor_id;sensor_type;location;lat;lon;timestamp;temperature;humidity
20856;DHT22;63058;49.424;8.420;2023-02-28T00:00:12;4.40;51.60
20856;DHT22;63058;49.424;8.420;2023-02-28T00:02:39;4.40;51.60
20856;DHT22;63058;49.424;8.420;2023-02-28T00:07:40;4.40;51.80
20856;DHT22;63058;49.424;8.420;2023-02-28T00:10:09;4.40;51.80
20856;DHT22;63058;49.424;8.420;2023-02-28T00:12:35;4.40;51.70
20856;DHT22;63058;49.424;8.420;2023-02-28T00:15:05;4.40;51.70
20856;DHT22;63058;49.424;8.420;2023-02-28T00:17:31;4.40;51.80
20856;DHT22;63058;49.424;8.420;2023-02-28T00:19:57;4.30;51.80
20856;DHT22;63058;49.424;8.420;2023-02-28T00:22:30;4.30;51.70
20856;DHT22;63058;49.424;8.420;2023-02-28T00:24:56;4.20;51.70
20856;DHT22;63058;49.424;8.420;2023-02-28T00:27:22;4.20;51.90
20856;DHT22;63058;49.424;8.420;2023-02-28T00:29:47;4.10;51.90
20856;DHT22;63058;49.424;8.420;2023-02-28T00:32:13;4.10;52.00
20856;DHT22;63058;49.424;8.420;2023-02-28T00:34:39;4.00;52.00
20856;DHT22;63058;49.424;8.420;2023-02-28T00:37:06;4.00;52.20
20856;DHT22;63058;49.424;8.420;2023-02-28T00:39:34;4.00;52.40
20856;DHT22;63058;49.424;8.420;2023-02-28T00:42:00;4.00;52.40
20856;DHT22;63058;49.424;8.420;2023-02-28T00:44:25;3.90;52.50
20856;DHT22;63058;49.424;8.420;2023-02-28T00:46:51;3.90;52.40
20856;DHT22;63058;49.424;8.420;2023-02-28T00:49:19;3.80;52.50
20856;DHT22;63058;49.424;8.420;2023-02-28T00:51:45;3.80;52.50
20856;DHT22;63058;49.424;8.420;2023-02-28T00:54:11;3.80;52.80
20856;DHT22;63058;49.424;8.420;2023-02-28T00:56:37;3.70;52.80
20856;DHT22;63058;49.424;8.420;2023-02-28T00:59:02;3.70;52.90
20856;DHT22;63058;49.424;8.420;2023-02-28T01:01:28;3.70;53.00
20856;DHT22;63058;49.424;8.420;2023-02-28T01:03:54;3.70;53.20
20856;DHT22;63058;49.424;8.420;2023-02-28T01:06:19;3.70;53.30
20856;DHT22;63058;49.424;8.420;2023-02-28T01:08:45;3.70;53.40
20856;DHT22;63058;49.424;8.420;2023-02-28T01:11:12;3.70;53.40
20856;DHT22;63058;49.424;8.420;2023-02-28T01:13:39;3.60;53.50
20856;DHT22;63058;49.424;8.420;2023-02-28T01:16:05;3.60;53.50
20856;DHT22;63058;49.424;8.420;2023-02-28T01:18:31;3.70;53.60
20856;DHT22;63058;49.424;8.420;2023-02-28T01:20:56;3.60;53.60
20856;DHT22;63058;49.424;8.420;2023-02-28T01:23:22;3.70;53.80
20856;DHT22;63058;49.424;8.420;2023-02-28T01:25:52;3.60;53.90
20856;DHT22;63058;49.424;8.420;2023-02-28T01:28:18;3.60;54.00
20856;DHT22;63058;49.424;8.420;2023-02-28T01:30:48;3.60;53.90
20856;DHT22;63058;49.424;8.420;2023-02-28T01:33:14;3.60;54.00
20856;DHT22;63058;49.424;8.420;2023-02-28T01:35:40;3.60;54.00
20856;DHT22;63058;49.424;8.420;2023-02-28T01:38:05;3.50;54.00
20856;DHT22;63058;49.424;8.420;2023-02-28T01:40:31;3.50;54.00
20856;DHT22;63058;49.424;8.420;2023-02-28T01:42:56;3.50;53.90
20856;DHT22;63058;49.424;8.420;2023-02-28T01:45:30;3.50;54.20
20856;DHT22;63058;49.424;8.420;2023-02-28T01:48:00;3.50;54.50
20856;DHT22;63058;49.424;8.420;2023-02-28T01:50:29;3.40;55.00
20856;DHT22;63058;49.424;8.420;2023-02-28T01:52:59;3.50;54.50
20856;DHT22;63058;49.424;8.420;2023-02-28T01:55:28;3.40;54.60
20856;DHT22;63058;49.424;8.420;2023-02-28T01:57:57;3.30;54.60
20856;DHT22;63058;49.424;8.420;2023-02-28T02:00:25;3.30;55.00
20856;DHT22;63058;49.424;8.420;2023-02-28T02:02:55;3.30;55.00
20856;DHT22;63058;49.424;8.420;2023-02-28T02:05:24;3.30;54.90
20856;DHT22;63058;49.424;8.420;2023-02-28T02:08:12;3.30;54.90
20856;DHT22;63058;49.424;8.420;2023-02-28T02:10:52;3.30;55.20
20856;DHT22;63058;49.424;8.420;2023-02-28T02:13:38;3.20;55.20
20856;DHT22;63058;49.424;8.420;2023-02-28T02:19:19;3.20;55.20
20856;DHT22;63058;49.424;8.420;2023-02-28T02:28:33;3.20;55.30
20856;DHT22;63058;49.424;8.420;2023-02-28T02:36:57;3.10;55.20
20856;DHT22;63058;49.424;8.420;2023-02-28T02:39:34;3.10;55.30
20856;DHT22;63058;49.424;8.420;2023-02-28T02:42:03;3.00;55.40
20856;DHT22;63058;49.424;8.420;2023-02-28T02:44:52;3.00;55.20
20856;DHT22;63058;49.424;8.420;2023-02-28T02:47:21;3.00;55.80
20856;DHT22;63058;49.424;8.420;2023-02-28T02:49:51;3.00;55.40
20856;DHT22;63058;49.424;8.420;2023-02-28T02:52:22;3.00;55.40
20856;DHT22;63058;49.424;8.420;2023-02-28T02:54:50;3.00;55.50
20856;DHT22;63058;49.424;8.420;2023-02-28T02:58:16;3.00;55.50
20856;DHT22;63058;49.424;8.420;2023-02-28T03:00:29;3.00;55.80
20856;DHT22;63058;49.424;8.420;2023-02-28T03:02:56;3.00;55.60
20856;DHT22;63058;49.424;8.420;2023-02-28T03:05:52;3.00;56.20
20856;DHT22;63058;49.424;8.420;2023-02-28T03:08:17;3.00;55.80
20856;DHT22;63058;49.424;8.420;2023-02-28T03:10:46;3.00;55.40
20856;DHT22;63058;49.424;8.420;2023-02-28T03:18:59;2.90;55.90
20856;DHT22;63058;49.424;8.420;2023-02-28T03:26:58;2.80;56.00
20856;DHT22;63058;49.424;8.420;2023-02-28T03:29:38;2.80;56.60
20856;DHT22;63058;49.424;8.420;2023-02-28T03:34:48;2.70;56.30
20856;DHT22;63058;49.424;8.420;2023-02-28T03:37:19;2.70;56.60
20856;DHT22;63058;49.424;8.420;2023-02-28T03:39:51;2.70;56.50
20856;DHT22;63058;49.424;8.420;2023-02-28T03:42:22;2.70;56.50
20856;DHT22;63058;49.424;8.420;2023-02-28T03:45:00;2.70;56.50
20856;DHT22;63058;49.424;8.420;2023-02-28T03:47:50;2.70;56.80
20856;DHT22;63058;49.424;8.420;2023-02-28T03:50:21;2.80;56.80
20856;DHT22;63058;49.424;8.420;2023-02-28T03:52:56;2.70;56.50
20856;DHT22;63058;49.424;8.420;2023-02-28T03:55:28;2.70;56.60
20856;DHT22;63058;49.424;8.420;2023-02-28T03:58:01;2.70;56.50
20856;DHT22;63058;49.424;8.420;2023-02-28T04:00:37;2.70;56.50
20856;DHT22;63058;49.424;8.420;2023-02-28T04:03:04;2.60;57.00
20856;DHT22;63058;49.424;8.420;2023-02-28T04:05:31;2.60;56.60
20856;DHT22;63058;49.424;8.420;2023-02-28T04:08:05;2.60;56.70
20856;DHT22;63058;49.424;8.420;2023-02-28T04:10:30;2.60;57.00
20856;DHT22;63058;49.424;8.420;2023-02-28T04:12:56;2.60;56.70
20856;DHT22;63058;49.424;8.420;2023-02-28T04:15:22;2.60;56.70
20856;DHT22;63058;49.424;8.420;2023-02-28T04:17:50;2.60;56.80
20856;DHT22;63058;49.424;8.420;2023-02-28T04:20:15;2.60;56.70
20856;DHT22;63058;49.424;8.420;2023-02-28T04:22:41;2.60;56.80
20856;DHT22;63058;49.424;8.420;2023-02-28T04:25:07;2.60;56.80
20856;DHT22;63058;49.424;8.420;2023-02-28T04:27:33;2.60;56.90
20856;DHT22;63058;49.424;8.420;2023-02-28T04:29:59;2.50;56.90
20856;DHT22;63058;49.424;8.420;2023-02-28T04:32:24;2.50;56.90
20856;DHT22;63058;49.424;8.420;2023-02-28T04:34:50;2.50;56.90
20856;DHT22;63058;49.424;8.420;2023-02-28T04:37:16;2.50;57.00
20856;DHT22;63058;49.424;8.420;2023-02-28T04:39:42;2.50;57.10
20856;DHT22;63058;49.424;8.420;2023-02-28T04:42:08;2.50;57.10
20856;DHT22;63058;49.424;8.420;2023-02-28T04:44:33;2.40;57.20
20856;DHT22;63058;49.424;8.420;2023-02-28T04:46:59;2.40;57.90
20856;DHT22;63058;49.424;8.420;2023-02-28T04:49:25;2.50;57.30
20856;DHT22;63058;49.424;8.420;2023-02-28T04:51:51;2.40;57.10
20856;DHT22;63058;49.424;8.420;2023-02-28T04:54:18;2.40;57.20
20856;DHT22;63058;49.424;8.420;2023-02-28T04:56:44;2.50;57.40
20856;DHT22;63058;49.424;8.420;2023-02-28T04:59:09;2.50;57.70
20856;DHT22;63058;49.424;8.420;2023-02-28T05:01:35;2.50;57.50
20856;DHT22;63058;49.424;8.420;2023-02-28T05:04:02;2.50;57.50
20856;DHT22;63058;49.424;8.420;2023-02-28T05:06:31;2.60;57.70
20856;DHT22;63058;49.424;8.420;2023-02-28T05:08:57;2.60;57.70
20856;DHT22;63058;49.424;8.420;2023-02-28T05:13:51;2.70;57.80
20856;DHT22;63058;49.424;8.420;2023-02-28T05:16:17;2.70;57.90
20856;DHT22;63058;49.424;8.420;2023-02-28T05:18:42;2.70;57.70
20856;DHT22;63058;49.424;8.420;2023-02-28T05:21:41;2.80;57.70
20856;DHT22;63058;49.424;8.420;2023-02-28T05:24:13;2.80;58.10
20856;DHT22;63058;49.424;8.420;2023-02-28T05:26:41;2.90;57.70
20856;DHT22;63058;49.424;8.420;2023-02-28T05:29:07;3.00;58.30
20856;DHT22;63058;49.424;8.420;2023-02-28T05:31:34;3.00;57.70
20856;DHT22;63058;49.424;8.420;2023-02-28T05:34:00;3.00;57.70
20856;DHT22;63058;49.424;8.420;2023-02-28T05:36:26;3.00;57.70
20856;DHT22;63058;49.424;8.420;2023-02-28T05:38:51;3.10;57.60
20856;DHT22;63058;49.424;8.420;2023-02-28T05:41:18;3.10;57.60
20856;DHT22;63058;49.424;8.420;2023-02-28T05:43:48;3.20;57.70
20856;DHT22;63058;49.424;8.420;2023-02-28T05:46:14;3.20;57.70
20856;DHT22;63058;49.424;8.420;2023-02-28T05:48:41;3.20;57.70
20856;DHT22;63058;49.424;8.420;2023-02-28T05:51:08;3.20;57.50
20856;DHT22;63058;49.424;8.420;2023-02-28T05:53:35;3.20;57.50
20856;DHT22;63058;49.424;8.420;2023-02-28T05:56:01;3.30;57.70
20856;DHT22;63058;49.424;8.420;2023-02-28T05:58:26;3.30;57.60
20856;DHT22;63058;49.424;8.420;2023-02-28T06:00:56;3.30;57.50
20856;DHT22;63058;49.424;8.420;2023-02-28T06:03:22;3.30;57.50
20856;DHT22;63058;49.424;8.420;2023-02-28T06:05:47;3.30;57.50
20856;DHT22;63058;49.424;8.420;2023-02-28T06:08:13;3.30;57.40
20856;DHT22;63058;49.424;8.420;2023-02-28T06:10:38;3.40;57.60
20856;DHT22;63058;49.424;8.420;2023-02-28T06:13:04;3.40;57.50
20856;DHT22;63058;49.424;8.420;2023-02-28T06:15:31;3.40;57.40
20856;DHT22;63058;49.424;8.420;2023-02-28T06:17:57;3.40;57.30
20856;DHT22;63058;49.424;8.420;2023-02-28T06:20:24;3.40;57.30
20856;DHT22;63058;49.424;8.420;2023-02-28T06:22:51;3.30;57.30
20856;DHT22;63058;49.424;8.420;2023-02-28T06:25:19;3.40;57.50
20856;DHT22;63058;49.424;8.420;2023-02-28T06:27:45;3.40;57.50
20856;DHT22;63058;49.424;8.420;2023-02-28T06:30:11;3.40;57.50
20856;DHT22;63058;49.424;8.420;2023-02-28T06:32:37;3.30;57.60
20856;DHT22;63058;49.424;8.420;2023-02-28T06:35:03;3.40;57.70
20856;DHT22;63058;49.424;8.420;2023-02-28T06:37:31;3.40;57.60
20856;DHT22;63058;49.424;8.420;2023-02-28T06:39:56;3.40;57.60
20856;DHT22;63058;49.424;8.420;2023-02-28T06:42:23;3.40;58.30
20856;DHT22;63058;49.424;8.420;2023-02-28T06:44:55;3.50;57.60
20856;DHT22;63058;49.424;8.420;2023-02-28T06:47:21;3.50;57.70
20856;DHT22;63058;49.424;8.420;2023-02-28T06:49:46;3.50;57.70
20856;DHT22;63058;49.424;8.420;2023-02-28T06:52:12;3.50;57.60
20856;DHT22;63058;49.424;8.420;2023-02-28T06:54:38;3.50;57.70
20856;DHT22;63058;49.424;8.420;2023-02-28T06:57:04;3.60;57.50
20856;DHT22;63058;49.424;8.420;2023-02-28T06:59:30;3.60;57.80
20856;DHT22;63058;49.424;8.420;2023-02-28T07:01:56;3.60;57.70
20856;DHT22;63058;49.424;8.420;2023-02-28T07:04:22;3.70;57.60
20856;DHT22;63058;49.424;8.420;2023-02-28T07:06:48;3.70;57.60
20856;DHT22;63058;49.424;8.420;2023-02-28T07:09:13;3.70;57.60
20856;DHT22;63058;49.424;8.420;2023-02-28T07:11:40;3.80;57.60
20856;DHT22;63058;49.424;8.420;2023-02-28T07:14:06;3.80;57.70
20856;DHT22;63058;49.424;8.420;2023-02-28T07:16:32;3.90;57.50
20856;DHT22;63058;49.424;8.420;2023-02-28T07:18:58;3.90;57.60
20856;DHT22;63058;49.424;8.420;2023-02-28T07:21:24;3.90;57.50
20856;DHT22;63058;49.424;8.420;2023-02-28T07:23:50;3.90;57.60
20856;DHT22;63058;49.424;8.420;2023-02-28T07:26:18;3.90;57.60
20856;DHT22;63058;49.424;8.420;2023-02-28T07:28:46;4.00;57.60
20856;DHT22;63058;49.424;8.420;2023-02-28T07:31:13;4.00;57.50
20856;DHT22;63058;49.424;8.420;2023-02-28T07:33:42;4.10;57.50
20856;DHT22;63058;49.424;8.420;2023-02-28T07:36:10;4.10;57.50
20856;DHT22;63058;49.424;8.420;2023-02-28T07:38:41;4.20;57.60
20856;DHT22;63058;49.424;8.420;2023-02-28T07:41:07;4.20;57.60
20856;DHT22;63058;49.424;8.420;2023-02-28T07:43:34;4.20;57.50
20856;DHT22;63058;49.424;8.420;2023-02-28T07:46:08;4.30;57.70
20856;DHT22;63058;49.424;8.420;2023-02-28T07:48:34;4.30;57.80
20856;DHT22;63058;49.424;8.420;2023-02-28T07:51:00;4.40;57.70
20856;DHT22;63058;49.424;8.420;2023-02-28T07:53:27;4.50;57.70
20856;DHT22;63058;49.424;8.420;2023-02-28T07:55:59;4.50;58.30
20856;DHT22;63058;49.424;8.420;2023-02-28T07:58:26;4.60;57.70
20856;DHT22;63058;49.424;8.420;2023-02-28T08:00:52;4.70;57.70
20856;DHT22;63058;49.424;8.420;2023-02-28T08:03:20;4.70;57.70
20856;DHT22;63058;49.424;8.420;2023-02-28T08:05:46;4.80;57.60
20856;DHT22;63058;49.424;8.420;2023-02-28T08:08:11;4.90;57.60
20856;DHT22;63058;49.424;8.420;2023-02-28T08:10:37;5.00;57.60
20856;DHT22;63058;49.424;8.420;2023-02-28T08:13:03;5.00;57.40
20856;DHT22;63058;49.424;8.420;2023-02-28T08:15:29;5.00;57.40
20856;DHT22;63058;49.424;8.420;2023-02-28T08:17:54;5.10;57.50
20856;DHT22;63058;49.424;8.420;2023-02-28T08:20:22;5.20;57.50
20856;DHT22;63058;49.424;8.420;2023-02-28T08:22:48;5.20;57.60
20856;DHT22;63058;49.424;8.420;2023-02-28T08:25:13;5.30;57.60
20856;DHT22;63058;49.424;8.420;2023-02-28T08:27:39;5.40;57.50
20856;DHT22;63058;49.424;8.420;2023-02-28T08:30:05;5.50;57.40
20856;DHT22;63058;49.424;8.420;2023-02-28T08:32:32;5.60;57.30
20856;DHT22;63058;49.424;8.420;2023-02-28T08:34:58;5.60;57.20
20856;DHT22;63058;49.424;8.420;2023-02-28T08:37:24;5.70;57.10
20856;DHT22;63058;49.424;8.420;2023-02-28T08:39:50;5.70;56.80
20856;DHT22;63058;49.424;8.420;2023-02-28T08:42:15;5.70;56.70
20856;DHT22;63058;49.424;8.420;2023-02-28T08:44:41;5.70;56.60
20856;DHT22;63058;49.424;8.420;2023-02-28T08:47:07;5.60;56.60
20856;DHT22;63058;49.424;8.420;2023-02-28T08:49:32;5.60;56.60
20856;DHT22;63058;49.424;8.420;2023-02-28T08:51:58;5.60;56.60
20856;DHT22;63058;49.424;8.420;2023-02-28T08:54:24;5.60;56.60
20856;DHT22;63058;49.424;8.420;2023-02-28T08:56:50;5.60;56.60
20856;DHT22;63058;49.424;8.420;2023-02-28T08:59:16;5.60;56.60
20856;DHT22;63058;49.424;8.420;2023-02-28T09:01:42;5.60;56.60
20856;DHT22;63058;49.424;8.420;2023-02-28T09:04:09;5.60;56.60
20856;DHT22;63058;49.424;8.420;2023-02-28T09:06:36;5.50;56.50
20856;DHT22;63058;49.424;8.420;2023-02-28T09:09:01;5.60;56.60
20856;DHT22;63058;49.424;8.420;2023-02-28T09:11:29;5.60;56.60
20856;DHT22;63058;49.424;8.420;2023-02-28T09:13:55;5.60;56.60
20856;DHT22;63058;49.424;8.420;2023-02-28T09:16:21;5.60;56.70
20856;DHT22;63058;49.424;8.420;2023-02-28T09:18:47;5.60;56.60
20856;DHT22;63058;49.424;8.420;2023-02-28T09:21:15;5.60;56.60
20856;DHT22;63058;49.424;8.420;2023-02-28T09:23:43;5.70;56.60
20856;DHT22;63058;49.424;8.420;2023-02-28T09:26:17;5.70;56.60
20856;DHT22;63058;49.424;8.420;2023-02-28T09:28:43;5.70;56.60
20856;DHT22;63058;49.424;8.420;2023-02-28T09:31:18;5.80;56.60
20856;DHT22;63058;49.424;8.420;2023-02-28T09:33:52;5.80;56.60
20856;DHT22;63058;49.424;8.420;2023-02-28T09:36:19;5.90;56.60
20856;DHT22;63058;49.424;8.420;2023-02-28T09:38:45;5.90;56.60
20856;DHT22;63058;49.424;8.420;2023-02-28T09:41:17;6.00;56.60
20856;DHT22;63058;49.424;8.420;2023-02-28T09:43:47;6.00;56.60
20856;DHT22;63058;49.424;8.420;2023-02-28T09:48:57;6.20;56.60
20856;DHT22;63058;49.424;8.420;2023-02-28T09:51:34;6.30;56.60
20856;DHT22;63058;49.424;8.420;2023-02-28T09:54:00;6.30;56.50
20856;DHT22;63058;49.424;8.420;2023-02-28T09:56:34;6.40;56.40
20856;DHT22;63058;49.424;8.420;2023-02-28T10:02:21;6.60;56.30
20856;DHT22;63058;49.424;8.420;2023-02-28T10:05:02;6.60;56.00
20856;DHT22;63058;49.424;8.420;2023-02-28T10:07:52;6.70;56.00
20856;DHT22;63058;49.424;8.420;2023-02-28T10:12:53;6.80;56.20
20856;DHT22;63058;49.424;8.420;2023-02-28T10:15:23;6.90;56.00
20856;DHT22;63058;49.424;8.420;2023-02-28T10:17:54;7.00;56.10
20856;DHT22;63058;49.424;8.420;2023-02-28T10:20:23;7.00;55.60
20856;DHT22;63058;49.424;8.420;2023-02-28T10:23:09;7.10;55.90
20856;DHT22;63058;49.424;8.420;2023-02-28T10:25:38;7.30;56.00
20856;DHT22;63058;49.424;8.420;2023-02-28T10:28:14;7.50;56.10
20856;DHT22;63058;49.424;8.420;2023-02-28T10:30:43;7.60;55.50
20856;DHT22;63058;49.424;8.420;2023-02-28T10:35:45;8.10;55.30
20856;DHT22;63058;49.424;8.420;2023-02-28T10:38:21;8.30;55.50
20856;DHT22;63058;49.424;8.420;2023-02-28T10:40:47;8.60;55.50
20856;DHT22;63058;49.424;8.420;2023-02-28T10:45:38;9.20;55.20
20856;DHT22;63058;49.424;8.420;2023-02-28T10:48:29;9.50;54.90
20856;DHT22;63058;49.424;8.420;2023-02-28T10:50:56;9.80;54.30
20856;DHT22;63058;49.424;8.420;2023-02-28T10:58:55;10.50;53.30
20856;DHT22;63058;49.424;8.420;2023-02-28T11:01:24;10.70;53.10
20856;DHT22;63058;49.424;8.420;2023-02-28T11:03:51;10.90;53.00
20856;DHT22;63058;49.424;8.420;2023-02-28T11:08:54;11.20;53.20
20856;DHT22;63058;49.424;8.420;2023-02-28T11:11:23;11.50;52.90
20856;DHT22;63058;49.424;8.420;2023-02-28T11:13:56;11.80;53.20
20856;DHT22;63058;49.424;8.420;2023-02-28T11:16:32;12.00;52.50
20856;DHT22;63058;49.424;8.420;2023-02-28T11:18:58;12.30;53.10
20856;DHT22;63058;49.424;8.420;2023-02-28T11:21:31;12.40;51.20
20856;DHT22;63058;49.424;8.420;2023-02-28T11:24:30;12.30;50.30
20856;DHT22;63058;49.424;8.420;2023-02-28T11:26:57;12.30;50.60
20856;DHT22;63058;49.424;8.420;2023-02-28T11:29:28;12.30;50.40
20856;DHT22;63058;49.424;8.420;2023-02-28T11:32:16;12.30;50.60
20856;DHT22;63058;49.424;8.420;2023-02-28T11:34:44;12.40;50.30
20856;DHT22;63058;49.424;8.420;2023-02-28T11:37:16;12.60;50.90
20856;DHT22;63058;49.424;8.420;2023-02-28T11:39:43;12.70;50.30
20856;DHT22;63058;49.424;8.420;2023-02-28T11:48:02;13.20;49.30
20856;DHT22;63058;49.424;8.420;2023-02-28T11:51:11;13.40;49.30
20856;DHT22;63058;49.424;8.420;2023-02-28T11:56:34;13.70;47.20
20856;DHT22;63058;49.424;8.420;2023-02-28T11:59:53;13.80;47.30
20856;DHT22;63058;49.424;8.420;2023-02-28T12:08:10;14.30;48.30
20856;DHT22;63058;49.424;8.420;2023-02-28T12:13:29;14.50;48.00
20856;DHT22;63058;49.424;8.420;2023-02-28T12:26:58;14.80;48.10
20856;DHT22;63058;49.424;8.420;2023-02-28T12:29:29;14.80;47.90
20856;DHT22;63058;49.424;8.420;2023-02-28T12:32:01;14.90;45.90
20856;DHT22;63058;49.424;8.420;2023-02-28T12:34:41;15.00;46.50
20856;DHT22;63058;49.424;8.420;2023-02-28T12:37:46;15.10;45.90
20856;DHT22;63058;49.424;8.420;2023-02-28T12:40:14;15.20;46.00
20856;DHT22;63058;49.424;8.420;2023-02-28T12:42:50;15.50;46.50
20856;DHT22;63058;49.424;8.420;2023-02-28T12:45:23;15.60;46.00
20856;DHT22;63058;49.424;8.420;2023-02-28T12:48:11;15.60;45.60
20856;DHT22;63058;49.424;8.420;2023-02-28T12:50:40;15.50;45.20
20856;DHT22;63058;49.424;8.420;2023-02-28T12:58:39;15.70;45.80
20856;DHT22;63058;49.424;8.420;2023-02-28T13:09:38;15.80;45.00
20856;DHT22;63058;49.424;8.420;2023-02-28T13:12:15;15.80;45.20
20856;DHT22;63058;49.424;8.420;2023-02-28T13:14:42;15.90;44.90
20856;DHT22;63058;49.424;8.420;2023-02-28T13:19:44;16.20;45.80
20856;DHT22;63058;49.424;8.420;2023-02-28T13:22:20;16.20;45.30
20856;DHT22;63058;49.424;8.420;2023-02-28T13:25:01;16.30;42.40
20856;DHT22;63058;49.424;8.420;2023-02-28T13:27:40;16.30;43.10
20856;DHT22;63058;49.424;8.420;2023-02-28T13:38:45;16.30;44.70
20856;DHT22;63058;49.424;8.420;2023-02-28T13:44:19;16.50;43.70
20856;DHT22;63058;49.424;8.420;2023-02-28T14:02:37;16.30;42.90
20856;DHT22;63058;49.424;8.420;2023-02-28T14:05:14;16.30;44.00
20856;DHT22;63058;49.424;8.420;2023-02-28T14:07:52;16.10;42.20
20856;DHT22;63058;49.424;8.420;2023-02-28T14:10:44;15.90;42.10
20856;DHT22;63058;49.424;8.420;2023-02-28T14:13:13;15.70;42.40
20856;DHT22;63058;49.424;8.420;2023-02-28T14:15:40;15.70;43.30
20856;DHT22;63058;49.424;8.420;2023-02-28T14:18:37;15.70;43.90
20856;DHT22;63058;49.424;8.420;2023-02-28T14:21:20;15.80;44.00
20856;DHT22;63058;49.424;8.420;2023-02-28T14:27:00;16.20;43.50
20856;DHT22;63058;49.424;8.420;2023-02-28T14:29:38;16.40;43.70
20856;DHT22;63058;49.424;8.420;2023-02-28T14:37:51;16.80;41.80
20856;DHT22;63058;49.424;8.420;2023-02-28T14:42:58;16.90;41.80
20856;DHT22;63058;49.424;8.420;2023-02-28T14:45:30;16.80;41.00
20856;DHT22;63058;49.424;8.420;2023-02-28T14:47:56;16.60;41.60
20856;DHT22;63058;49.424;8.420;2023-02-28T14:50:35;16.50;42.30
20856;DHT22;63058;49.424;8.420;2023-02-28T14:53:01;16.40;41.50
20856;DHT22;63058;49.424;8.420;2023-02-28T14:55:34;16.30;42.30
20856;DHT22;63058;49.424;8.420;2023-02-28T14:58:02;16.30;42.30
20856;DHT22;63058;49.424;8.420;2023-02-28T15:00:34;16.40;42.90
20856;DHT22;63058;49.424;8.420;2023-02-28T15:05:52;16.70;43.50
20856;DHT22;63058;49.424;8.420;2023-02-28T15:08:18;16.80;42.60
20856;DHT22;63058;49.424;8.420;2023-02-28T15:10:59;17.00;42.90
20856;DHT22;63058;49.424;8.420;2023-02-28T15:13:53;17.10;41.40
20856;DHT22;63058;49.424;8.420;2023-02-28T15:16:26;17.10;41.50
20856;DHT22;63058;49.424;8.420;2023-02-28T15:19:02;17.10;41.50
20856;DHT22;63058;49.424;8.420;2023-02-28T15:21:34;17.20;39.80
20856;DHT22;63058;49.424;8.420;2023-02-28T15:26:34;17.00;37.60
20856;DHT22;63058;49.424;8.420;2023-02-28T15:29:05;16.80;39.10
20856;DHT22;63058;49.424;8.420;2023-02-28T15:31:40;16.60;39.30
20856;DHT22;63058;49.424;8.420;2023-02-28T15:34:19;16.40;39.50
20856;DHT22;63058;49.424;8.420;2023-02-28T15:36:46;16.30;39.50
20856;DHT22;63058;49.424;8.420;2023-02-28T15:39:23;16.20;40.40
20856;DHT22;63058;49.424;8.420;2023-02-28T15:41:49;16.00;40.30
20856;DHT22;63058;49.424;8.420;2023-02-28T15:44:28;16.00;40.80
20856;DHT22;63058;49.424;8.420;2023-02-28T15:47:14;16.00;41.00
20856;DHT22;63058;49.424;8.420;2023-02-28T15:49:56;15.90;40.90
20856;DHT22;63058;49.424;8.420;2023-02-28T15:55:20;15.90;41.40
20856;DHT22;63058;49.424;8.420;2023-02-28T15:57:50;15.90;40.90
20856;DHT22;63058;49.424;8.420;2023-02-28T16:00:21;15.80;40.90
20856;DHT22;63058;49.424;8.420;2023-02-28T16:02:47;15.80;41.20
20856;DHT22;63058;49.424;8.420;2023-02-28T16:05:26;15.80;41.70
20856;DHT22;63058;49.424;8.420;2023-02-28T16:08:06;15.80;41.20
20856;DHT22;63058;49.424;8.420;2023-02-28T16:10:36;15.90;41.30
20856;DHT22;63058;49.424;8.420;2023-02-28T16:13:02;15.80;41.20
20856;DHT22;63058;49.424;8.420;2023-02-28T16:15:31;15.70;41.20
20856;DHT22;63058;49.424;8.420;2023-02-28T16:17:59;15.60;40.90
20856;DHT22;63058;49.424;8.420;2023-02-28T16:20:29;15.30;40.00
20856;DHT22;63058;49.424;8.420;2023-02-28T16:22:55;14.90;40.20
20856;DHT22;63058;49.424;8.420;2023-02-28T16:25:28;14.30;39.30
20856;DHT22;63058;49.424;8.420;2023-02-28T16:27:54;13.80;39.60
20856;DHT22;63058;49.424;8.420;2023-02-28T16:30:27;13.30;39.80
20856;DHT22;63058;49.424;8.420;2023-02-28T16:32:55;12.80;40.20
20856;DHT22;63058;49.424;8.420;2023-02-28T16:35:21;12.30;40.50
20856;DHT22;63058;49.424;8.420;2023-02-28T16:37:47;11.80;40.70
20856;DHT22;63058;49.424;8.420;2023-02-28T16:40:19;11.50;41.10
20856;DHT22;63058;49.424;8.420;2023-02-28T16:42:49;11.10;41.40
20856;DHT22;63058;49.424;8.420;2023-02-28T16:45:17;10.70;41.60
20856;DHT22;63058;49.424;8.420;2023-02-28T16:47:45;10.50;42.00
20856;DHT22;63058;49.424;8.420;2023-02-28T16:50:22;10.20;42.20
20856;DHT22;63058;49.424;8.420;2023-02-28T16:52:48;10.00;42.60
20856;DHT22;63058;49.424;8.420;2023-02-28T16:55:15;9.80;42.70
20856;DHT22;63058;49.424;8.420;2023-02-28T16:57:41;9.60;43.10
20856;DHT22;63058;49.424;8.420;2023-02-28T17:00:12;9.50;43.30
20856;DHT22;63058;49.424;8.420;2023-02-28T17:02:38;9.30;43.50
20856;DHT22;63058;49.424;8.420;2023-02-28T17:05:04;9.20;43.40
20856;DHT22;63058;49.424;8.420;2023-02-28T17:07:30;9.10;43.60
20856;DHT22;63058;49.424;8.420;2023-02-28T17:09:56;9.00;43.70
20856;DHT22;63058;49.424;8.420;2023-02-28T17:12:21;8.80;43.80
20856;DHT22;63058;49.424;8.420;2023-02-28T17:14:47;8.70;44.10
20856;DHT22;63058;49.424;8.420;2023-02-28T17:17:18;8.80;44.40
20856;DHT22;63058;49.424;8.420;2023-02-28T17:19:45;8.60;44.80
20856;DHT22;63058;49.424;8.420;2023-02-28T17:22:10;8.50;44.80
20856;DHT22;63058;49.424;8.420;2023-02-28T17:24:36;8.40;44.90
20856;DHT22;63058;49.424;8.420;2023-02-28T17:27:02;8.40;45.10
20856;DHT22;63058;49.424;8.420;2023-02-28T17:29:28;8.30;45.30
20856;DHT22;63058;49.424;8.420;2023-02-28T17:31:54;8.20;45.20
20856;DHT22;63058;49.424;8.420;2023-02-28T17:34:20;8.10;45.20
20856;DHT22;63058;49.424;8.420;2023-02-28T17:36:48;8.10;45.30
20856;DHT22;63058;49.424;8.420;2023-02-28T17:39:15;8.00;45.40
20856;DHT22;63058;49.424;8.420;2023-02-28T17:41:45;8.00;45.60
20856;DHT22;63058;49.424;8.420;2023-02-28T17:44:10;8.00;46.20
20856;DHT22;63058;49.424;8.420;2023-02-28T17:46:36;7.80;45.70
20856;DHT22;63058;49.424;8.420;2023-02-28T17:49:02;7.90;45.70
20856;DHT22;63058;49.424;8.420;2023-02-28T17:51:27;7.80;45.80
20856;DHT22;63058;49.424;8.420;2023-02-28T17:53:53;7.70;46.40
20856;DHT22;63058;49.424;8.420;2023-02-28T17:56:22;7.60;46.00
20856;DHT22;63058;49.424;8.420;2023-02-28T17:58:49;7.60;46.10
20856;DHT22;63058;49.424;8.420;2023-02-28T18:01:15;7.60;46.30
20856;DHT22;63058;49.424;8.420;2023-02-28T18:03:40;7.60;46.40
20856;DHT22;63058;49.424;8.420;2023-02-28T18:06:06;7.50;46.50
20856;DHT22;63058;49.424;8.420;2023-02-28T18:08:32;7.50;46.50
20856;DHT22;63058;49.424;8.420;2023-02-28T18:11:00;7.40;46.40
20856;DHT22;63058;49.424;8.420;2023-02-28T18:13:26;7.40;46.60
20856;DHT22;63058;49.424;8.420;2023-02-28T18:15:53;7.40;46.60
20856;DHT22;63058;49.424;8.420;2023-02-28T18:18:19;7.30;46.60
20856;DHT22;63058;49.424;8.420;2023-02-28T18:20:44;7.30;46.80
20856;DHT22;63058;49.424;8.420;2023-02-28T18:23:10;7.30;46.90
20856;DHT22;63058;49.424;8.420;2023-02-28T18:25:36;7.20;46.70